createdAt,value
2023-05-10T00:01:30.902Z,2.97
2023-05-10T00:03:32.540Z,3.80
2023-05-10T00:05:34.121Z,3.53
2023-05-10T00:07:35.827Z,2.65
2023-05-10T00:09:37.445Z,3.67
2023-05-10T00:11:39.032Z,2.67
2023-05-10T00:13:41.281Z,4.03
2023-05-10T00:15:42.833Z,4.32
2023-05-10T00:17:44.704Z,3.35
2023-05-10T00:19:46.389Z,4.70
2023-05-10T00:21:48.252Z,3.92
2023-05-10T00:23:49.976Z,4.38
2023-05-10T00:25:51.533Z,3.88
2023-05-10T00:27:53.128Z,2.88
2023-05-10T00:29:54.776Z,4.93
2023-05-10T00:31:57.168Z,3.63
2023-05-10T00:33:58.784Z,2.13
2023-05-10T00:36:00.411Z,2.35
2023-05-10T00:38:01.990Z,2.72
2023-05-10T00:40:03.845Z,3.05
2023-05-10T00:42:05.549Z,5.70
2023-05-10T00:44:07.387Z,3.88
2023-05-10T00:46:09.036Z,2.22
2023-05-10T00:48:10.630Z,3.13
2023-05-10T00:50:12.176Z,3.10
2023-05-10T00:52:14.124Z,3.72
2023-05-10T00:54:16.289Z,2.25
2023-05-10T00:56:18.197Z,1.85
2023-05-10T00:58:19.734Z,5.18
2023-05-10T01:00:21.597Z,3.30
2023-05-10T01:02:23.256Z,2.85
2023-05-10T01:04:26.510Z,3.13
2023-05-10T01:06:28.680Z,2.75
2023-05-10T01:08:30.361Z,3.22
2023-05-10T01:10:32.181Z,1.90
2023-05-10T01:12:36.719Z,3.35
2023-05-10T01:14:38.596Z,1.42
2023-05-10T01:16:41.792Z,1.70
2023-05-10T01:18:44.156Z,2.47
2023-05-10T01:20:48.056Z,2.15
2023-05-10T01:23:03.310Z,6.07
2023-05-10T01:25:16.850Z,1.52
2023-05-10T01:28:01.953Z,2.30
2023-05-10T01:30:36.587Z,4.53
2023-05-10T01:32:41.324Z,2.75
2023-05-10T01:35:02.036Z,2.35
2023-05-10T01:37:16.838Z,1.98
2023-05-10T01:39:23.817Z,3.38
2023-05-10T01:41:30.847Z,1.42
2023-05-10T01:43:58.089Z,2.20
2023-05-10T01:46:11.982Z,2.67
2023-05-10T01:48:15.639Z,2.10
2023-05-10T01:50:24.087Z,1.67
2023-05-10T01:52:38.876Z,1.77
2023-05-10T01:54:44.229Z,1.95
2023-05-10T01:56:48.312Z,3.63
2023-05-10T01:58:50.863Z,1.67
2023-05-10T02:00:53.514Z,1.58
2023-05-10T02:02:56.029Z,2.30
2023-05-10T02:04:58.172Z,1.50
2023-05-10T02:06:59.999Z,3.10
2023-05-10T02:09:02.939Z,3.03
2023-05-10T02:11:06.315Z,2.10
2023-05-10T02:13:08.768Z,2.42
2023-05-10T02:15:13.013Z,1.67
2023-05-10T02:17:15.381Z,1.67
2023-05-10T02:19:18.082Z,1.40
2023-05-10T02:21:21.638Z,1.48
2023-05-10T02:23:24.624Z,2.75
2023-05-10T02:25:26.737Z,2.42
2023-05-10T02:27:28.720Z,1.80
2023-05-10T02:29:31.201Z,1.63
2023-05-10T02:31:34.024Z,1.58
2023-05-10T02:33:36.439Z,2.75
2023-05-10T02:35:39.276Z,1.52
2023-05-10T02:37:41.021Z,2.15
2023-05-10T02:39:44.994Z,1.42
2023-05-10T02:41:47.929Z,1.88
2023-05-10T02:43:53.511Z,1.15
2023-05-10T02:45:55.211Z,2.05
2023-05-10T02:47:57.775Z,1.55
2023-05-10T02:49:59.466Z,1.98
2023-05-10T02:52:03.394Z,1.52
2023-05-10T02:54:10.736Z,1.17
2023-05-10T02:56:30.093Z,1.35
2023-05-10T02:58:31.696Z,2.35
2023-05-10T03:00:33.506Z,0.82
2023-05-10T03:02:35.145Z,0.80
2023-05-10T03:04:36.974Z,1.27
2023-05-10T03:06:39.070Z,0.82
2023-05-10T03:08:40.865Z,1.58
2023-05-10T03:10:51.447Z,2.10
2023-05-10T03:13:16.497Z,1.92
2023-05-10T03:15:46.022Z,2.17
2023-05-10T03:17:57.109Z,1.13
2023-05-10T03:20:08.674Z,0.88
2023-05-10T03:22:12.059Z,1.52
2023-05-10T03:24:16.615Z,2.15
2023-05-10T03:26:29.255Z,3.15
2023-05-10T03:28:31.041Z,1.48
2023-05-10T03:30:33.230Z,1.70
2023-05-10T03:32:35.782Z,1.48
2023-05-10T03:34:42.662Z,1.23
2023-05-10T03:36:44.225Z,1.00
2023-05-10T03:38:45.885Z,3.58
2023-05-10T03:40:47.374Z,1.20
2023-05-10T03:42:48.955Z,1.05
2023-05-10T03:44:50.906Z,1.23
2023-05-10T03:46:52.599Z,2.03
2023-05-10T03:48:54.458Z,1.52
2023-05-10T03:50:56.063Z,1.23
2023-05-10T03:52:58.582Z,1.02
2023-05-10T03:55:00.269Z,1.98
2023-05-10T03:57:01.986Z,1.38
2023-05-10T03:59:08.170Z,1.30
2023-05-10T04:01:09.805Z,1.58
2023-05-10T04:03:12.349Z,1.08
2023-05-10T04:05:13.946Z,0.93
2023-05-10T04:07:15.592Z,1.83
2023-05-10T04:09:18.021Z,0.65
2023-05-10T04:11:19.593Z,0.60
2023-05-10T04:13:21.683Z,0.95
2023-05-10T04:15:23.490Z,1.00
2023-05-10T04:17:25.104Z,1.55
2023-05-10T04:19:32.690Z,1.83
2023-05-10T04:21:34.322Z,1.50
2023-05-10T04:23:35.861Z,1.15
2023-05-10T04:25:37.576Z,1.23
2023-05-10T04:27:39.200Z,1.75
2023-05-10T04:29:40.804Z,1.50
2023-05-10T04:31:42.455Z,1.30
2023-05-10T04:33:44.117Z,2.33
2023-05-10T04:35:46.200Z,0.68
2023-05-10T04:37:47.734Z,2.53
2023-05-10T04:39:49.396Z,1.48
2023-05-10T04:41:51.052Z,1.45
2023-05-10T04:43:52.724Z,0.63
2023-05-10T04:45:57.436Z,1.55
2023-05-10T04:47:59.242Z,0.52
2023-05-10T04:50:00.981Z,0.88
2023-05-10T04:52:02.678Z,1.92
2023-05-10T04:54:06.415Z,2.75
2023-05-10T04:56:08.508Z,1.38
2023-05-10T04:58:10.205Z,0.85
2023-05-10T05:00:12.668Z,1.30
2023-05-10T05:02:14.314Z,0.93
2023-05-10T05:04:16.063Z,0.47
2023-05-10T05:06:17.652Z,1.30
2023-05-10T05:08:19.185Z,1.48
2023-05-10T05:10:20.760Z,1.58
2023-05-10T05:12:22.333Z,1.85
2023-05-10T05:14:26.036Z,0.73
2023-05-10T05:16:27.923Z,1.58
2023-05-10T05:18:29.773Z,0.88
2023-05-10T05:20:33.870Z,1.00
2023-05-10T05:22:37.246Z,1.63
2023-05-10T05:24:39.146Z,1.58
2023-05-10T05:26:40.800Z,2.47
2023-05-10T05:28:42.442Z,0.82
2023-05-10T05:30:44.109Z,0.93
2023-05-10T05:32:45.734Z,1.00
2023-05-10T05:34:47.632Z,0.75
2023-05-10T05:36:49.473Z,1.08
2023-05-10T05:38:51.336Z,1.75
2023-05-10T05:40:52.935Z,1.17
2023-05-10T05:42:54.536Z,1.55
2023-05-10T05:44:56.114Z,0.85
2023-05-10T05:46:57.981Z,1.42
2023-05-10T05:48:59.763Z,1.35
2023-05-10T05:51:01.407Z,1.05
2023-05-10T05:53:03.235Z,2.38
2023-05-10T05:55:05.363Z,1.00
2023-05-10T05:57:07.151Z,0.60
2023-05-10T05:59:08.892Z,1.05
2023-05-10T06:01:10.501Z,1.45
2023-05-10T06:03:12.233Z,1.48
2023-05-10T06:05:15.165Z,1.55
2023-05-10T06:07:17.517Z,1.25
2023-05-10T06:09:19.140Z,1.02
2023-05-10T06:11:22.049Z,1.38
2023-05-10T06:13:23.828Z,1.10
2023-05-10T06:15:25.646Z,1.08
2023-05-10T06:17:27.540Z,1.73
2023-05-10T06:19:29.221Z,1.40
2023-05-10T06:21:31.268Z,1.23
2023-05-10T06:23:33.060Z,1.25
2023-05-10T06:25:34.659Z,1.42
2023-05-10T06:27:38.485Z,1.08
2023-05-10T06:29:40.187Z,0.65
2023-05-10T06:31:41.967Z,1.70
2023-05-10T06:33:43.615Z,1.13
2023-05-10T06:35:45.169Z,1.98
2023-05-10T06:37:47.723Z,1.10
2023-05-10T06:39:49.563Z,1.38
2023-05-10T06:41:51.277Z,1.88
2023-05-10T06:43:53.149Z,1.17
2023-05-10T06:45:54.813Z,2.42
2023-05-10T06:47:56.548Z,3.80
2023-05-10T06:49:58.245Z,1.95
2023-05-10T06:51:59.996Z,1.52
2023-05-10T06:54:02.233Z,1.17
2023-05-10T06:56:04.443Z,2.40
2023-05-10T06:58:07.202Z,1.58
2023-05-10T07:00:10.533Z,2.08
2023-05-10T07:02:12.291Z,1.88
2023-05-10T07:04:14.687Z,1.05
2023-05-10T07:06:29.450Z,1.27
2023-05-10T07:08:35.289Z,2.13
2023-05-10T07:10:36.941Z,1.20
2023-05-10T07:12:39.148Z,2.08
2023-05-10T07:14:40.929Z,1.42
2023-05-10T07:16:42.536Z,1.65
2023-05-10T07:18:44.159Z,2.03
2023-05-10T07:20:45.767Z,3.63
2023-05-10T07:22:47.446Z,1.23
2023-05-10T07:24:49.131Z,2.50
2023-05-10T07:26:50.949Z,2.08
2023-05-10T07:28:52.502Z,2.67
2023-05-10T07:30:54.054Z,2.55
2023-05-10T07:32:55.893Z,2.80
2023-05-10T07:34:57.741Z,2.67
2023-05-10T07:37:00.293Z,2.45
2023-05-10T07:39:02.139Z,1.70
2023-05-10T07:41:03.776Z,2.67
2023-05-10T07:43:05.351Z,1.85
2023-05-10T07:45:07.560Z,2.08
2023-05-10T07:47:09.424Z,2.45
2023-05-10T07:49:11.095Z,1.70
2023-05-10T07:51:13.052Z,2.78
2023-05-10T07:53:14.744Z,2.78
2023-05-10T07:55:16.831Z,2.33
2023-05-10T07:57:19.104Z,1.83
2023-05-10T07:59:21.094Z,1.73
2023-05-10T08:01:23.232Z,2.33
2023-05-10T08:03:24.917Z,1.48
2023-05-10T08:05:26.598Z,2.00
2023-05-10T08:07:28.450Z,2.25
2023-05-10T08:09:29.997Z,2.38
2023-05-10T08:11:32.802Z,1.55
2023-05-10T08:13:35.299Z,2.15
2023-05-10T08:15:36.926Z,1.75
2023-05-10T08:17:38.847Z,4.65
2023-05-10T08:19:40.508Z,3.30
2023-05-10T08:21:43.380Z,1.75
2023-05-10T08:23:45.262Z,2.40
2023-05-10T08:25:46.987Z,3.45
2023-05-10T08:27:48.607Z,3.35
2023-05-10T08:29:50.717Z,3.35
2023-05-10T08:31:52.456Z,4.18
2023-05-10T08:33:54.216Z,4.30
2023-05-10T08:35:55.825Z,4.45
2023-05-10T08:37:57.350Z,2.78
2023-05-10T08:39:58.986Z,3.90
2023-05-10T08:42:02.644Z,4.93
2023-05-10T08:44:05.426Z,3.88
2023-05-10T08:46:08.866Z,3.80
2023-05-10T08:48:11.557Z,3.33
2023-05-10T08:50:13.757Z,5.03
2023-05-10T08:52:16.128Z,4.47
2023-05-10T08:54:17.818Z,4.63
2023-05-10T08:56:20.696Z,3.75
2023-05-10T08:58:22.604Z,6.28
2023-05-10T09:00:24.682Z,3.45
2023-05-10T09:02:26.702Z,5.53
2023-05-10T09:04:29.216Z,5.88
2023-05-10T09:06:31.034Z,4.60
2023-05-10T09:08:32.702Z,7.07
2023-05-10T09:10:34.246Z,4.72
2023-05-10T09:12:36.433Z,4.70
2023-05-10T09:14:38.898Z,4.10
2023-05-10T09:16:41.258Z,5.25
2023-05-10T09:18:43.023Z,5.55
2023-05-10T09:20:44.628Z,4.47
2023-05-10T09:22:46.290Z,3.95
2023-05-10T09:24:47.986Z,5.32
2023-05-10T09:26:50.197Z,5.22
2023-05-10T09:28:53.572Z,7.47
2023-05-10T09:30:56.570Z,5.88
2023-05-10T09:32:59.608Z,8.80
2023-05-10T09:35:13.328Z,4.13
2023-05-10T09:37:15.190Z,5.00
2023-05-10T09:39:17.088Z,5.07
2023-05-10T09:41:20.232Z,5.32
2023-05-10T09:43:21.759Z,4.22
2023-05-10T09:45:34.602Z,5.43
2023-05-10T09:47:37.459Z,5.30
2023-05-10T09:49:39.001Z,4.35
2023-05-10T09:51:40.929Z,4.78
2023-05-10T09:53:42.606Z,4.88
2023-05-10T09:55:46.813Z,5.63
2023-05-10T09:57:49.479Z,6.55
2023-05-10T09:59:51.653Z,5.68
2023-05-10T10:01:54.601Z,7.32
2023-05-10T10:03:58.683Z,5.65
2023-05-10T10:06:00.345Z,6.35
2023-05-10T10:08:04.113Z,6.10
2023-05-10T10:10:06.492Z,7.97
2023-05-10T10:12:08.142Z,6.43
2023-05-10T10:14:10.044Z,6.82
2023-05-10T10:16:11.750Z,9.40
2023-05-10T10:18:16.689Z,6.10
2023-05-10T10:20:20.144Z,8.00
2023-05-10T10:22:22.062Z,6.75
2023-05-10T10:24:23.623Z,11.27
2023-05-10T10:26:26.066Z,8.07
2023-05-10T10:28:53.427Z,9.32
2023-05-10T10:30:57.040Z,6.80
2023-05-10T10:33:27.352Z,9.63
2023-05-10T10:37:54.656Z,6.63
2023-05-10T10:39:56.557Z,7.13
2023-05-10T10:41:58.884Z,8.60
2023-05-10T10:44:34.861Z,7.95
2023-05-10T10:47:03.534Z,8.32
2023-05-10T10:49:11.623Z,12.90
2023-05-10T10:51:14.265Z,12.73
2023-05-10T10:53:15.956Z,8.95
2023-05-10T10:55:25.927Z,9.25
2023-05-10T10:57:28.286Z,9.43
2023-05-10T10:59:29.905Z,7.97
2023-05-10T11:01:37.685Z,8.40
2023-05-10T11:03:39.403Z,9.05
2023-05-10T11:05:50.678Z,8.73
2023-05-10T11:07:59.388Z,8.23
2023-05-10T11:10:05.930Z,8.35
2023-05-10T11:12:09.630Z,8.77
2023-05-10T11:14:11.374Z,8.40
2023-05-10T11:16:27.965Z,7.20
2023-05-10T11:18:31.479Z,9.75
2023-05-10T11:20:39.957Z,11.32
2023-05-10T11:22:54.168Z,9.80
2023-05-10T11:25:01.950Z,7.35
2023-05-10T11:27:03.733Z,7.20
2023-05-10T11:29:06.013Z,6.90
2023-05-10T11:31:08.053Z,10.68
2023-05-10T11:33:10.453Z,12.55
2023-05-10T11:35:12.928Z,19.98
2023-05-10T11:37:14.664Z,14.85
2023-05-10T11:39:16.185Z,15.60
2023-05-10T11:41:19.656Z,18.33
2023-05-10T11:43:24.734Z,12.10
2023-05-10T11:45:26.992Z,10.40
2023-05-10T11:47:28.760Z,12.77
2023-05-10T11:49:30.457Z,13.10
2023-05-10T11:51:35.340Z,8.52
2023-05-10T11:53:37.080Z,10.27
2023-05-10T11:55:38.927Z,23.67
2023-05-10T11:57:42.705Z,20.42
2023-05-10T11:59:44.282Z,17.83
2023-05-10T12:01:46.079Z,16.10
2023-05-10T12:03:48.041Z,10.02
2023-05-10T12:05:49.875Z,10.43
2023-05-10T12:07:51.526Z,13.00
2023-05-10T12:10:09.287Z,8.10
2023-05-10T12:12:11.510Z,9.30
2023-05-10T12:14:13.217Z,8.75
2023-05-10T12:16:20.809Z,11.73
2023-05-10T12:18:25.791Z,6.05
2023-05-10T12:20:28.958Z,9.68
2023-05-10T12:22:30.573Z,7.32
2023-05-10T12:24:34.329Z,6.75
2023-05-10T12:26:37.416Z,8.50
2023-05-10T12:28:40.066Z,6.47
2023-05-10T12:30:41.592Z,7.53
2023-05-10T12:32:44.980Z,5.60
2023-05-10T12:34:47.640Z,7.00
2023-05-10T12:36:52.702Z,8.80
2023-05-10T12:39:03.382Z,5.93
2023-05-10T12:41:06.924Z,8.70
2023-05-10T12:43:08.536Z,6.60
2023-05-10T12:45:10.610Z,5.82
2023-05-10T12:47:12.240Z,5.90
2023-05-10T12:49:13.777Z,4.97
2023-05-10T12:51:18.098Z,7.20
2023-05-10T12:53:19.925Z,10.52
2023-05-10T12:55:21.769Z,6.40
2023-05-10T12:57:23.466Z,8.95
2023-05-10T12:59:25.023Z,10.80
2023-05-10T13:01:26.709Z,6.82
2023-05-10T13:03:28.382Z,8.48
2023-05-10T13:05:29.892Z,7.80
2023-05-10T13:07:31.497Z,14.85
2023-05-10T13:09:33.256Z,20.02
2023-05-10T13:11:34.908Z,11.77
2023-05-10T13:13:36.454Z,9.73
2023-05-10T13:15:38.197Z,12.10
2023-05-10T13:17:41.691Z,9.65
2023-05-10T13:19:43.410Z,11.95
2023-05-10T13:21:47.730Z,8.95
2023-05-10T13:23:49.442Z,11.52
2023-05-10T13:25:50.990Z,10.02
2023-05-10T13:27:52.549Z,10.38
2023-05-10T13:29:54.165Z,7.50
2023-05-10T13:31:55.884Z,8.18
2023-05-10T13:33:57.449Z,10.20
2023-05-10T13:35:59.058Z,8.27
2023-05-10T13:38:00.966Z,8.63
2023-05-10T13:40:02.876Z,13.70
2023-05-10T13:42:05.144Z,18.73
2023-05-10T13:44:06.771Z,18.77
2023-05-10T13:46:08.429Z,41.00
2023-05-10T13:48:10.162Z,23.48
2023-05-10T13:50:11.898Z,29.95
2023-05-10T13:52:13.522Z,16.00
2023-05-10T13:54:15.117Z,22.73
2023-05-10T13:56:16.853Z,11.68
2023-05-10T13:58:18.610Z,12.57
2023-05-10T14:00:20.603Z,11.07
2023-05-10T14:02:22.261Z,8.60
2023-05-10T14:04:23.891Z,15.73
2023-05-10T14:06:25.471Z,9.70
2023-05-10T14:08:28.009Z,12.68
2023-05-10T14:10:29.674Z,8.40
2023-05-10T14:12:31.496Z,14.20
2023-05-10T14:14:33.186Z,9.93
2023-05-10T14:16:34.755Z,7.22
2023-05-10T14:18:36.547Z,11.15
2023-05-10T14:20:38.201Z,8.48
2023-05-10T14:22:39.771Z,6.68
2023-05-10T14:24:41.630Z,8.27
2023-05-10T14:26:43.230Z,9.63
2023-05-10T14:28:44.805Z,9.20
2023-05-10T14:30:47.176Z,8.73
2023-05-10T14:32:48.752Z,10.02
2023-05-10T14:34:50.470Z,9.35
2023-05-10T14:36:52.042Z,7.32
2023-05-10T14:38:53.599Z,9.85
2023-05-10T14:40:55.452Z,5.88
2023-05-10T14:42:57.454Z,6.45
2023-05-10T14:44:59.026Z,7.07
2023-05-10T14:47:00.746Z,6.43
2023-05-10T14:49:02.306Z,4.43
2023-05-10T14:51:04.603Z,7.80
2023-05-10T14:53:06.329Z,6.60
2023-05-10T14:55:08.419Z,4.82
2023-05-10T14:57:09.980Z,10.18
2023-05-10T14:59:11.599Z,4.93
2023-05-10T15:01:13.685Z,4.03
2023-05-10T15:03:16.410Z,4.22
2023-05-10T15:05:18.965Z,4.28
2023-05-10T15:07:20.909Z,5.80
2023-05-10T15:09:22.418Z,5.25
2023-05-10T15:11:23.943Z,3.53
2023-05-10T15:13:25.907Z,4.00
2023-05-10T15:15:27.549Z,5.55
2023-05-10T15:17:29.189Z,3.92
2023-05-10T15:19:30.774Z,3.15
2023-05-10T15:21:38.548Z,5.80
2023-05-10T15:23:40.294Z,6.75
2023-05-10T15:25:41.913Z,3.20
2023-05-10T15:27:44.656Z,4.75
2023-05-10T15:29:46.491Z,6.00
2023-05-10T15:31:49.239Z,5.57
2023-05-10T15:33:50.789Z,4.90
2023-05-10T15:35:54.490Z,3.00
2023-05-10T15:37:56.079Z,4.55
2023-05-10T15:40:04.322Z,4.78
2023-05-10T15:42:06.290Z,5.47
2023-05-10T15:44:07.927Z,5.53
2023-05-10T15:46:09.523Z,4.80
2023-05-10T15:48:11.189Z,6.18
2023-05-10T15:50:12.952Z,4.72
2023-05-10T15:52:14.612Z,6.95
2023-05-10T15:54:16.259Z,6.32
2023-05-10T15:56:18.050Z,3.35
2023-05-10T15:58:19.650Z,5.63
2023-05-10T16:00:21.440Z,4.20
2023-05-10T16:02:23.527Z,5.10
2023-05-10T16:04:25.849Z,3.65
2023-05-10T16:06:27.421Z,5.43
2023-05-10T16:08:33.710Z,3.50
2023-05-10T16:10:35.408Z,4.47
2023-05-10T16:12:37.098Z,6.20
2023-05-10T16:14:38.723Z,5.03
2023-05-10T16:16:41.302Z,4.95
2023-05-10T16:18:43.112Z,5.63
2023-05-10T16:20:45.008Z,3.67
2023-05-10T16:22:46.729Z,5.10
2023-05-10T16:24:48.364Z,5.15
2023-05-10T16:26:49.991Z,5.70
2023-05-10T16:28:52.236Z,5.78
2023-05-10T16:30:53.972Z,5.47
2023-05-10T16:32:56.467Z,3.50
2023-05-10T16:34:58.933Z,3.58
2023-05-10T16:37:00.683Z,5.55
2023-05-10T16:39:02.735Z,8.60
2023-05-10T16:41:07.428Z,6.18
2023-05-10T16:43:08.985Z,3.40
2023-05-10T16:45:11.294Z,4.57
2023-05-10T16:47:12.938Z,4.35
2023-05-10T16:49:14.635Z,3.40
2023-05-10T16:51:16.322Z,4.15
2023-05-10T16:53:18.123Z,5.07
2023-05-10T16:55:19.865Z,6.18
2023-05-10T16:57:21.650Z,4.90
2023-05-10T16:59:23.248Z,6.07
2023-05-10T17:01:26.958Z,5.22
2023-05-10T17:03:28.851Z,5.65
2023-05-10T17:05:30.545Z,4.28
2023-05-10T17:07:32.063Z,6.72
2023-05-10T17:09:33.549Z,4.75
2023-05-10T17:11:35.365Z,6.78
2023-05-10T17:13:38.774Z,6.47
2023-05-10T17:15:40.472Z,4.97
2023-05-10T17:17:42.184Z,3.05
2023-05-10T17:19:46.986Z,5.40
2023-05-10T17:21:48.609Z,2.45
2023-05-10T17:23:50.265Z,4.35
2023-05-10T17:25:51.871Z,4.50
2023-05-10T17:27:53.386Z,4.78
2023-05-10T17:29:58.258Z,5.00
2023-05-10T17:32:00.198Z,4.20
2023-05-10T17:34:04.028Z,6.00
2023-05-10T17:36:07.516Z,4.70
2023-05-10T17:38:09.138Z,5.80
2023-05-10T17:40:11.499Z,6.00
2023-05-10T17:42:13.774Z,5.22
2023-05-10T17:44:15.632Z,5.75
2023-05-10T17:46:17.973Z,5.45
2023-05-10T17:48:19.734Z,7.70
2023-05-10T17:50:21.349Z,4.47
2023-05-10T17:52:23.053Z,6.28
2023-05-10T17:54:24.605Z,4.47
2023-05-10T17:56:26.266Z,5.93
2023-05-10T17:58:28.226Z,5.40
2023-05-10T18:00:30.055Z,4.50
2023-05-10T18:02:31.823Z,4.57
2023-05-10T18:04:33.593Z,5.85
2023-05-10T18:06:38.319Z,18.23
2023-05-10T18:08:39.962Z,14.40
2023-05-10T18:10:41.817Z,8.55
2023-05-10T18:12:43.599Z,8.23
2023-05-10T18:14:45.168Z,7.55
2023-05-10T18:16:47.230Z,6.85
2023-05-10T18:18:49.020Z,5.75
2023-05-10T18:20:56.438Z,7.75
2023-05-10T18:22:58.506Z,5.45
2023-05-10T18:25:00.250Z,4.28
2023-05-10T18:27:02.010Z,3.35
2023-05-10T18:29:03.834Z,6.00
2023-05-10T18:31:05.518Z,3.63
2023-05-10T18:33:07.592Z,2.80
2023-05-10T18:35:09.597Z,4.85
2023-05-10T18:37:11.389Z,2.53
2023-05-10T18:39:13.421Z,4.72
2023-05-10T18:41:15.142Z,3.53
2023-05-10T18:43:16.784Z,3.58
2023-05-10T18:45:18.548Z,3.70
2023-05-10T18:47:20.528Z,4.80
2023-05-10T18:49:22.170Z,2.75
2023-05-10T18:51:24.413Z,2.88
2023-05-10T18:53:26.448Z,4.13
2023-05-10T18:55:28.462Z,4.32
2023-05-10T18:57:30.093Z,3.97
2023-05-10T18:59:32.073Z,3.75
2023-05-10T19:01:33.673Z,3.85
2023-05-10T19:03:35.895Z,4.78
2023-05-10T19:05:37.398Z,4.47
2023-05-10T19:07:40.520Z,6.60
2023-05-10T19:09:42.084Z,4.22
2023-05-10T19:11:43.686Z,4.13
2023-05-10T19:13:46.044Z,5.82
2023-05-10T19:15:53.131Z,6.80
2023-05-10T19:17:55.874Z,3.58
2023-05-10T19:19:59.517Z,3.85
2023-05-10T19:22:01.692Z,5.05
2023-05-10T19:24:03.557Z,4.65
2023-05-10T19:26:05.681Z,4.28
2023-05-10T19:28:08.946Z,4.90
2023-05-10T19:30:11.509Z,8.60
2023-05-10T19:32:13.360Z,5.65
2023-05-10T19:34:15.296Z,5.47
2023-05-10T19:36:17.186Z,4.72
2023-05-10T19:38:25.336Z,4.43
2023-05-10T19:40:27.440Z,3.72
2023-05-10T19:42:29.192Z,4.25
2023-05-10T19:44:31.703Z,4.10
2023-05-10T19:46:33.564Z,4.10
2023-05-10T19:48:35.986Z,5.00
2023-05-10T19:50:38.267Z,3.45
2023-05-10T19:52:40.325Z,5.78
2023-05-10T19:54:42.811Z,4.82
2023-05-10T19:56:44.368Z,3.72
2023-05-10T19:58:46.078Z,4.03
2023-05-10T20:00:47.733Z,3.83
2023-05-10T20:02:49.488Z,4.43
2023-05-10T20:04:51.280Z,4.20
2023-05-10T20:06:52.997Z,2.60
2023-05-10T20:08:54.720Z,4.93
2023-05-10T20:10:58.884Z,2.78
2023-05-10T20:13:00.610Z,3.45
2023-05-10T20:15:02.765Z,3.00
2023-05-10T20:17:04.880Z,3.67
2023-05-10T20:19:06.875Z,2.47
2023-05-10T20:21:08.510Z,3.03
2023-05-10T20:23:10.163Z,4.10
2023-05-10T20:25:11.979Z,2.42
2023-05-10T20:27:13.829Z,2.83
2023-05-10T20:29:15.485Z,2.08
2023-05-10T20:31:17.411Z,2.72
2023-05-10T20:33:19.232Z,3.92
2023-05-10T20:35:20.881Z,2.63
2023-05-10T20:37:23.405Z,3.63
2023-05-10T20:39:24.987Z,2.22
2023-05-10T20:41:26.621Z,2.85
2023-05-10T20:43:29.142Z,3.50
2023-05-10T20:45:30.817Z,4.30
2023-05-10T20:47:32.572Z,2.92
2023-05-10T20:49:35.466Z,3.33
2023-05-10T20:51:37.130Z,3.38
2023-05-10T20:53:38.638Z,3.00
2023-05-10T20:55:40.426Z,2.70
2023-05-10T20:57:42.098Z,2.63
2023-05-10T20:59:43.816Z,4.10
2023-05-10T21:01:45.695Z,3.60
2023-05-10T21:03:47.259Z,4.35
2023-05-10T21:05:48.856Z,3.22
2023-05-10T21:07:54.070Z,2.90
2023-05-10T21:09:55.632Z,2.40
2023-05-10T21:11:57.770Z,3.17
2023-05-10T21:13:59.290Z,3.03
2023-05-10T21:16:01.180Z,3.15
2023-05-10T21:18:02.855Z,3.13
2023-05-10T21:20:05.229Z,3.08
2023-05-10T21:22:07.618Z,3.97
2023-05-10T21:24:09.280Z,2.83
2023-05-10T21:26:10.817Z,2.53
2023-05-10T21:28:12.602Z,3.53
2023-05-10T21:30:14.610Z,4.07
2023-05-10T21:32:16.484Z,3.30
2023-05-10T21:34:18.084Z,3.13
2023-05-10T21:36:19.850Z,3.08
2023-05-10T21:38:21.491Z,2.65
2023-05-10T21:40:23.938Z,1.92
2023-05-10T21:42:25.566Z,3.13
2023-05-10T21:44:27.143Z,3.00
2023-05-10T21:46:28.748Z,4.13
2023-05-10T21:48:30.856Z,3.47
2023-05-10T21:50:32.576Z,2.35
2023-05-10T21:52:34.171Z,2.33
2023-05-10T21:54:37.252Z,3.00
2023-05-10T21:56:38.825Z,2.95
2023-05-10T21:58:40.831Z,3.13
2023-05-10T22:00:42.460Z,2.50
2023-05-10T22:02:44.182Z,2.40
2023-05-10T22:04:45.814Z,2.70
2023-05-10T22:06:47.854Z,4.32
2023-05-10T22:08:49.412Z,3.20
2023-05-10T22:10:51.963Z,3.03
2023-05-10T22:12:53.532Z,3.13
2023-05-10T22:15:09.413Z,3.70
2023-05-10T22:17:12.291Z,2.85
2023-05-10T22:19:13.944Z,2.22
2023-05-10T22:21:15.553Z,2.60
2023-05-10T22:23:17.087Z,3.30
2023-05-10T22:25:18.636Z,2.40
2023-05-10T22:27:20.383Z,2.88
2023-05-10T22:29:22.750Z,2.38
2023-05-10T22:31:24.474Z,3.95
2023-05-10T22:33:26.121Z,2.10
2023-05-10T22:35:27.763Z,2.55
2023-05-10T22:37:29.434Z,2.83
2023-05-10T22:39:31.078Z,3.10
2023-05-10T22:41:34.047Z,3.90
2023-05-10T22:43:35.673Z,3.65
2023-05-10T22:45:37.406Z,3.72
2023-05-10T22:47:39.419Z,4.50
2023-05-10T22:49:41.028Z,2.17
2023-05-10T22:51:42.571Z,1.65
2023-05-10T22:53:44.158Z,2.65
2023-05-10T22:55:47.068Z,3.45
2023-05-10T22:57:48.682Z,2.85
2023-05-10T22:59:50.214Z,1.88
2023-05-10T23:01:51.794Z,4.90
2023-05-10T23:03:53.461Z,4.45
2023-05-10T23:05:54.968Z,3.58
2023-05-10T23:07:56.627Z,3.58
2023-05-10T23:09:58.264Z,2.53
2023-05-10T23:11:59.909Z,5.47
2023-05-10T23:14:01.655Z,3.05
2023-05-10T23:16:06.768Z,3.47
2023-05-10T23:18:09.685Z,3.45
2023-05-10T23:20:12.197Z,1.92
2023-05-10T23:22:13.798Z,3.53
2023-05-10T23:24:15.426Z,2.22
2023-05-10T23:26:16.963Z,4.18
2023-05-10T23:28:18.694Z,2.83
2023-05-10T23:30:20.385Z,2.83
2023-05-10T23:32:24.815Z,4.40
2023-05-10T23:34:26.422Z,3.13
2023-05-10T23:36:28.033Z,3.05
2023-05-10T23:38:29.619Z,2.40
2023-05-10T23:40:31.285Z,4.57
2023-05-10T23:42:32.859Z,2.85
2023-05-10T23:44:34.693Z,4.07
2023-05-10T23:46:36.220Z,2.78
2023-05-10T23:48:37.904Z,3.28
2023-05-10T23:50:44.505Z,3.97
2023-05-10T23:52:46.064Z,4.50
2023-05-10T23:54:47.704Z,2.63
2023-05-10T23:56:51.489Z,2.90
2023-05-10T23:58:53.171Z,2.65
